sensor_id;sensor_type;location;lat;lon;timestamp;P1;durP1;ratioP1;P2;durP2;ratioP2
323;SDS011;149;51.094;17.002;2023-04-03T00:01:02;5.97;;;3.63;;
323;SDS011;149;51.094;17.002;2023-04-03T00:03:30;3.65;;;2.50;;
323;SDS011;149;51.094;17.002;2023-04-03T00:05:57;6.00;;;2.65;;
323;SDS011;149;51.094;17.002;2023-04-03T00:08:24;5.60;;;2.58;;
323;SDS011;149;51.094;17.002;2023-04-03T00:10:51;4.95;;;2.45;;
323;SDS011;149;51.094;17.002;2023-04-03T00:13:17;5.70;;;2.95;;
323;SDS011;149;51.094;17.002;2023-04-03T00:15:45;3.20;;;1.92;;
323;SDS011;149;51.094;17.002;2023-04-03T00:18:11;5.30;;;2.20;;
323;SDS011;149;51.094;17.002;2023-04-03T00:20:38;3.97;;;2.05;;
323;SDS011;149;51.094;17.002;2023-04-03T00:23:05;3.95;;;2.30;;
323;SDS011;149;51.094;17.002;2023-04-03T00:25:32;3.08;;;2.45;;
323;SDS011;149;51.094;17.002;2023-04-03T00:28:00;4.90;;;1.95;;
323;SDS011;149;51.094;17.002;2023-04-03T00:30:27;7.20;;;3.17;;
323;SDS011;149;51.094;17.002;2023-04-03T00:32:53;4.95;;;2.33;;
323;SDS011;149;51.094;17.002;2023-04-03T00:35:21;5.70;;;2.92;;
323;SDS011;149;51.094;17.002;2023-04-03T00:37:52;3.47;;;2.03;;
323;SDS011;149;51.094;17.002;2023-04-03T00:40:22;7.10;;;3.15;;
323;SDS011;149;51.094;17.002;2023-04-03T00:42:52;6.47;;;2.55;;
323;SDS011;149;51.094;17.002;2023-04-03T00:45:24;6.72;;;3.03;;
323;SDS011;149;51.094;17.002;2023-04-03T00:47:55;2.47;;;2.10;;
323;SDS011;149;51.094;17.002;2023-04-03T00:50:23;3.30;;;2.65;;
323;SDS011;149;51.094;17.002;2023-04-03T00:52:50;4.85;;;3.45;;
323;SDS011;149;51.094;17.002;2023-04-03T00:55:17;5.97;;;2.50;;
323;SDS011;149;51.094;17.002;2023-04-03T00:57:44;5.22;;;2.42;;
323;SDS011;149;51.094;17.002;2023-04-03T01:00:13;6.30;;;2.38;;
323;SDS011;149;51.094;17.002;2023-04-03T01:02:43;9.30;;;3.13;;
323;SDS011;149;51.094;17.002;2023-04-03T01:05:11;3.90;;;2.60;;
323;SDS011;149;51.094;17.002;2023-04-03T01:07:39;3.15;;;2.30;;
323;SDS011;149;51.094;17.002;2023-04-03T01:10:08;8.73;;;3.30;;
323;SDS011;149;51.094;17.002;2023-04-03T01:12:38;2.92;;;2.55;;
323;SDS011;149;51.094;17.002;2023-04-03T01:15:13;2.38;;;1.90;;
323;SDS011;149;51.094;17.002;2023-04-03T01:17:47;6.82;;;3.15;;
323;SDS011;149;51.094;17.002;2023-04-03T01:25:50;7.47;;;3.60;;
323;SDS011;149;51.094;17.002;2023-04-03T01:28:29;3.50;;;2.50;;
323;SDS011;149;51.094;17.002;2023-04-03T01:33:55;7.78;;;2.45;;
323;SDS011;149;51.094;17.002;2023-04-03T01:36:24;6.82;;;2.67;;
323;SDS011;149;51.094;17.002;2023-04-03T01:38:53;6.93;;;2.80;;
323;SDS011;149;51.094;17.002;2023-04-03T01:41:20;11.35;;;2.85;;
323;SDS011;149;51.094;17.002;2023-04-03T01:43:48;6.82;;;3.05;;
323;SDS011;149;51.094;17.002;2023-04-03T01:46:16;5.97;;;2.90;;
323;SDS011;149;51.094;17.002;2023-04-03T01:48:43;5.65;;;2.55;;
323;SDS011;149;51.094;17.002;2023-04-03T01:51:10;8.52;;;3.10;;
323;SDS011;149;51.094;17.002;2023-04-03T01:53:38;3.05;;;2.50;;
323;SDS011;149;51.094;17.002;2023-04-03T01:56:04;4.85;;;2.30;;
323;SDS011;149;51.094;17.002;2023-04-03T01:58:32;6.57;;;3.22;;
323;SDS011;149;51.094;17.002;2023-04-03T02:00:59;3.70;;;2.47;;
323;SDS011;149;51.094;17.002;2023-04-03T02:03:25;3.75;;;2.40;;
323;SDS011;149;51.094;17.002;2023-04-03T02:05:52;8.82;;;2.60;;
323;SDS011;149;51.094;17.002;2023-04-03T02:08:19;3.13;;;2.17;;
323;SDS011;149;51.094;17.002;2023-04-03T02:10:47;9.77;;;3.35;;
323;SDS011;149;51.094;17.002;2023-04-03T02:13:15;7.47;;;3.20;;
323;SDS011;149;51.094;17.002;2023-04-03T02:15:42;4.03;;;3.28;;
323;SDS011;149;51.094;17.002;2023-04-03T02:18:09;5.82;;;3.35;;
323;SDS011;149;51.094;17.002;2023-04-03T02:20:36;2.47;;;2.22;;
323;SDS011;149;51.094;17.002;2023-04-03T02:23:04;6.72;;;2.65;;
323;SDS011;149;51.094;17.002;2023-04-03T02:25:32;6.18;;;3.08;;
323;SDS011;149;51.094;17.002;2023-04-03T02:28:03;7.38;;;2.38;;
323;SDS011;149;51.094;17.002;2023-04-03T02:30:31;4.25;;;2.95;;
323;SDS011;149;51.094;17.002;2023-04-03T02:32:58;4.50;;;3.10;;
323;SDS011;149;51.094;17.002;2023-04-03T02:35:25;4.47;;;2.72;;
323;SDS011;149;51.094;17.002;2023-04-03T02:37:52;10.48;;;4.10;;
323;SDS011;149;51.094;17.002;2023-04-03T02:40:18;6.82;;;4.10;;
323;SDS011;149;51.094;17.002;2023-04-03T02:42:45;9.70;;;3.50;;
323;SDS011;149;51.094;17.002;2023-04-03T02:45:12;6.85;;;3.40;;
323;SDS011;149;51.094;17.002;2023-04-03T02:47:39;5.18;;;4.07;;
323;SDS011;149;51.094;17.002;2023-04-03T02:50:06;8.93;;;4.15;;
323;SDS011;149;51.094;17.002;2023-04-03T02:52:33;7.97;;;3.58;;
323;SDS011;149;51.094;17.002;2023-04-03T02:55:00;7.20;;;3.95;;
323;SDS011;149;51.094;17.002;2023-04-03T02:57:27;9.02;;;4.30;;
323;SDS011;149;51.094;17.002;2023-04-03T02:59:54;14.32;;;3.78;;
323;SDS011;149;51.094;17.002;2023-04-03T03:02:21;6.05;;;3.47;;
323;SDS011;149;51.094;17.002;2023-04-03T03:04:48;3.88;;;3.38;;
323;SDS011;149;51.094;17.002;2023-04-03T03:07:15;6.30;;;3.95;;
323;SDS011;149;51.094;17.002;2023-04-03T03:09:42;4.03;;;3.53;;
323;SDS011;149;51.094;17.002;2023-04-03T03:12:09;4.00;;;3.60;;
323;SDS011;149;51.094;17.002;2023-04-03T03:14:36;4.20;;;3.33;;
323;SDS011;149;51.094;17.002;2023-04-03T03:17:03;8.68;;;3.45;;
323;SDS011;149;51.094;17.002;2023-04-03T03:19:29;6.22;;;4.45;;
323;SDS011;149;51.094;17.002;2023-04-03T03:21:56;4.95;;;3.70;;
323;SDS011;149;51.094;17.002;2023-04-03T03:24:23;8.15;;;3.47;;
323;SDS011;149;51.094;17.002;2023-04-03T03:26:50;12.55;;;4.97;;
323;SDS011;149;51.094;17.002;2023-04-03T03:29:17;7.75;;;4.03;;
323;SDS011;149;51.094;17.002;2023-04-03T03:31:44;7.80;;;4.25;;
323;SDS011;149;51.094;17.002;2023-04-03T03:34:12;11.80;;;4.10;;
323;SDS011;149;51.094;17.002;2023-04-03T03:36:39;7.70;;;4.55;;
323;SDS011;149;51.094;17.002;2023-04-03T03:39:07;9.80;;;3.25;;
323;SDS011;149;51.094;17.002;2023-04-03T03:41:34;4.07;;;3.72;;
323;SDS011;149;51.094;17.002;2023-04-03T03:44:01;9.30;;;5.75;;
323;SDS011;149;51.094;17.002;2023-04-03T03:46:28;12.30;;;5.07;;
323;SDS011;149;51.094;17.002;2023-04-03T03:48:55;6.95;;;4.25;;
323;SDS011;149;51.094;17.002;2023-04-03T03:51:22;7.43;;;4.07;;
323;SDS011;149;51.094;17.002;2023-04-03T03:53:49;7.72;;;4.50;;
323;SDS011;149;51.094;17.002;2023-04-03T03:56:16;4.72;;;4.20;;
323;SDS011;149;51.094;17.002;2023-04-03T03:58:43;7.85;;;4.20;;
323;SDS011;149;51.094;17.002;2023-04-03T04:01:10;11.20;;;5.10;;
323;SDS011;149;51.094;17.002;2023-04-03T04:03:37;9.50;;;4.15;;
323;SDS011;149;51.094;17.002;2023-04-03T04:06:04;9.05;;;4.70;;
323;SDS011;149;51.094;17.002;2023-04-03T04:08:30;7.15;;;4.45;;
323;SDS011;149;51.094;17.002;2023-04-03T04:10:57;5.38;;;4.85;;
323;SDS011;149;51.094;17.002;2023-04-03T04:13:24;8.75;;;4.30;;
323;SDS011;149;51.094;17.002;2023-04-03T04:15:51;7.22;;;4.15;;
323;SDS011;149;51.094;17.002;2023-04-03T04:18:18;10.20;;;4.10;;
323;SDS011;149;51.094;17.002;2023-04-03T04:20:47;6.30;;;4.10;;
323;SDS011;149;51.094;17.002;2023-04-03T04:23:15;5.68;;;4.68;;
323;SDS011;149;51.094;17.002;2023-04-03T04:25:46;17.02;;;6.45;;
323;SDS011;149;51.094;17.002;2023-04-03T04:28:14;4.53;;;4.13;;
323;SDS011;149;51.094;17.002;2023-04-03T04:30:41;9.77;;;5.80;;
323;SDS011;149;51.094;17.002;2023-04-03T04:33:09;7.40;;;5.22;;
323;SDS011;149;51.094;17.002;2023-04-03T04:35:37;7.43;;;4.90;;
323;SDS011;149;51.094;17.002;2023-04-03T04:38:04;5.70;;;5.00;;
323;SDS011;149;51.094;17.002;2023-04-03T04:40:34;9.38;;;4.40;;
323;SDS011;149;51.094;17.002;2023-04-03T04:43:05;16.60;;;5.65;;
323;SDS011;149;51.094;17.002;2023-04-03T04:45:34;8.02;;;5.20;;
323;SDS011;149;51.094;17.002;2023-04-03T04:48:04;8.30;;;4.95;;
323;SDS011;149;51.094;17.002;2023-04-03T04:50:31;6.72;;;4.03;;
323;SDS011;149;51.094;17.002;2023-04-03T04:53:00;9.32;;;4.57;;
323;SDS011;149;51.094;17.002;2023-04-03T04:55:30;8.77;;;4.30;;
323;SDS011;149;51.094;17.002;2023-04-03T04:57:57;5.32;;;3.80;;
323;SDS011;149;51.094;17.002;2023-04-03T05:00:25;5.78;;;3.38;;
323;SDS011;149;51.094;17.002;2023-04-03T05:02:52;10.18;;;4.90;;
323;SDS011;149;51.094;17.002;2023-04-03T05:05:19;6.07;;;3.45;;
323;SDS011;149;51.094;17.002;2023-04-03T05:07:46;6.03;;;3.38;;
323;SDS011;149;51.094;17.002;2023-04-03T05:10:13;8.45;;;3.70;;
323;SDS011;149;51.094;17.002;2023-04-03T05:12:41;3.22;;;2.92;;
323;SDS011;149;51.094;17.002;2023-04-03T05:15:08;5.15;;;3.00;;
323;SDS011;149;51.094;17.002;2023-04-03T05:17:35;5.38;;;3.35;;
323;SDS011;149;51.094;17.002;2023-04-03T05:20:03;10.57;;;3.53;;
323;SDS011;149;51.094;17.002;2023-04-03T05:22:31;4.07;;;2.58;;
323;SDS011;149;51.094;17.002;2023-04-03T05:24:58;4.93;;;2.80;;
323;SDS011;149;51.094;17.002;2023-04-03T05:27:25;6.25;;;3.55;;
323;SDS011;149;51.094;17.002;2023-04-03T05:29:54;5.47;;;3.00;;
323;SDS011;149;51.094;17.002;2023-04-03T05:32:22;6.65;;;2.70;;
323;SDS011;149;51.094;17.002;2023-04-03T05:34:49;7.05;;;3.15;;
323;SDS011;149;51.094;17.002;2023-04-03T05:37:16;5.40;;;3.17;;
323;SDS011;149;51.094;17.002;2023-04-03T05:39:43;4.80;;;2.65;;
323;SDS011;149;51.094;17.002;2023-04-03T05:42:10;6.05;;;2.50;;
323;SDS011;149;51.094;17.002;2023-04-03T05:44:38;2.60;;;2.40;;
323;SDS011;149;51.094;17.002;2023-04-03T05:47:04;7.88;;;2.55;;
323;SDS011;149;51.094;17.002;2023-04-03T05:49:31;3.55;;;2.50;;
323;SDS011;149;51.094;17.002;2023-04-03T05:51:58;3.83;;;2.35;;
323;SDS011;149;51.094;17.002;2023-04-03T05:54:26;5.75;;;3.20;;
323;SDS011;149;51.094;17.002;2023-04-03T05:56:55;4.68;;;2.42;;
323;SDS011;149;51.094;17.002;2023-04-03T05:59:22;6.90;;;2.85;;
323;SDS011;149;51.094;17.002;2023-04-03T06:01:49;5.07;;;3.25;;
323;SDS011;149;51.094;17.002;2023-04-03T06:04:16;6.78;;;4.10;;
323;SDS011;149;51.094;17.002;2023-04-03T06:06:43;3.20;;;2.60;;
323;SDS011;149;51.094;17.002;2023-04-03T06:09:20;6.32;;;3.25;;
323;SDS011;149;51.094;17.002;2023-04-03T06:11:49;7.10;;;3.25;;
323;SDS011;149;51.094;17.002;2023-04-03T06:14:16;3.33;;;2.55;;
323;SDS011;149;51.094;17.002;2023-04-03T06:16:43;4.88;;;2.85;;
323;SDS011;149;51.094;17.002;2023-04-03T06:19:11;6.40;;;3.47;;
323;SDS011;149;51.094;17.002;2023-04-03T06:21:38;5.43;;;3.10;;
323;SDS011;149;51.094;17.002;2023-04-03T06:24:05;7.00;;;3.65;;
323;SDS011;149;51.094;17.002;2023-04-03T06:26:33;5.10;;;3.40;;
323;SDS011;149;51.094;17.002;2023-04-03T06:29:01;8.65;;;3.30;;
323;SDS011;149;51.094;17.002;2023-04-03T06:31:28;4.75;;;2.42;;
323;SDS011;149;51.094;17.002;2023-04-03T06:33:56;3.97;;;2.72;;
323;SDS011;149;51.094;17.002;2023-04-03T06:36:23;2.55;;;2.30;;
323;SDS011;149;51.094;17.002;2023-04-03T06:38:50;3.50;;;2.58;;
323;SDS011;149;51.094;17.002;2023-04-03T06:41:18;4.72;;;2.28;;
323;SDS011;149;51.094;17.002;2023-04-03T06:43:45;2.67;;;2.47;;
323;SDS011;149;51.094;17.002;2023-04-03T06:46:16;6.00;;;3.40;;
323;SDS011;149;51.094;17.002;2023-04-03T06:48:44;4.50;;;2.17;;
323;SDS011;149;51.094;17.002;2023-04-03T06:51:25;2.30;;;2.10;;
323;SDS011;149;51.094;17.002;2023-04-03T06:53:54;7.57;;;3.30;;
323;SDS011;149;51.094;17.002;2023-04-03T06:56:24;10.98;;;2.65;;
323;SDS011;149;51.094;17.002;2023-04-03T06:58:53;4.70;;;2.92;;
323;SDS011;149;51.094;17.002;2023-04-03T07:01:25;6.10;;;2.75;;
323;SDS011;149;51.094;17.002;2023-04-03T07:03:54;12.95;;;3.58;;
323;SDS011;149;51.094;17.002;2023-04-03T07:06:22;2.95;;;2.67;;
323;SDS011;149;51.094;17.002;2023-04-03T07:08:49;2.85;;;2.50;;
323;SDS011;149;51.094;17.002;2023-04-03T07:11:16;7.75;;;3.47;;
323;SDS011;149;51.094;17.002;2023-04-03T07:13:43;5.05;;;2.70;;
323;SDS011;149;51.094;17.002;2023-04-03T07:16:10;4.70;;;2.45;;
323;SDS011;149;51.094;17.002;2023-04-03T07:18:37;5.68;;;3.80;;
323;SDS011;149;51.094;17.002;2023-04-03T07:21:05;7.78;;;2.72;;
323;SDS011;149;51.094;17.002;2023-04-03T07:23:32;16.88;;;4.05;;
323;SDS011;149;51.094;17.002;2023-04-03T07:25:59;3.60;;;3.03;;
323;SDS011;149;51.094;17.002;2023-04-03T07:28:26;4.93;;;3.80;;
323;SDS011;149;51.094;17.002;2023-04-03T07:31:00;3.63;;;2.70;;
323;SDS011;149;51.094;17.002;2023-04-03T07:33:31;4.13;;;2.55;;
323;SDS011;149;51.094;17.002;2023-04-03T07:35:58;5.82;;;2.60;;
323;SDS011;149;51.094;17.002;2023-04-03T07:38:27;4.30;;;2.25;;
323;SDS011;149;51.094;17.002;2023-04-03T07:40:54;6.95;;;3.20;;
323;SDS011;149;51.094;17.002;2023-04-03T07:43:21;4.25;;;3.13;;
323;SDS011;149;51.094;17.002;2023-04-03T07:45:50;2.55;;;2.35;;
323;SDS011;149;51.094;17.002;2023-04-03T07:48:19;4.88;;;2.58;;
323;SDS011;149;51.094;17.002;2023-04-03T07:50:47;5.45;;;2.80;;
323;SDS011;149;51.094;17.002;2023-04-03T07:53:14;4.80;;;2.83;;
323;SDS011;149;51.094;17.002;2023-04-03T07:55:42;3.20;;;2.35;;
323;SDS011;149;51.094;17.002;2023-04-03T07:58:10;4.95;;;2.25;;
323;SDS011;149;51.094;17.002;2023-04-03T08:00:38;4.35;;;2.00;;
323;SDS011;149;51.094;17.002;2023-04-03T08:03:06;3.55;;;2.55;;
323;SDS011;149;51.094;17.002;2023-04-03T08:05:37;6.28;;;1.98;;
323;SDS011;149;51.094;17.002;2023-04-03T08:08:08;2.53;;;2.10;;
323;SDS011;149;51.094;17.002;2023-04-03T08:10:39;3.88;;;2.20;;
323;SDS011;149;51.094;17.002;2023-04-03T08:13:07;2.30;;;1.60;;
323;SDS011;149;51.094;17.002;2023-04-03T08:15:35;7.03;;;2.63;;
323;SDS011;149;51.094;17.002;2023-04-03T08:18:03;7.10;;;2.35;;
323;SDS011;149;51.094;17.002;2023-04-03T08:20:30;3.90;;;2.40;;
323;SDS011;149;51.094;17.002;2023-04-03T08:22:58;7.93;;;2.40;;
323;SDS011;149;51.094;17.002;2023-04-03T08:25:24;3.72;;;2.17;;
323;SDS011;149;51.094;17.002;2023-04-03T08:27:52;5.38;;;1.70;;
323;SDS011;149;51.094;17.002;2023-04-03T08:30:19;3.70;;;1.70;;
323;SDS011;149;51.094;17.002;2023-04-03T08:32:46;1.85;;;1.75;;
323;SDS011;149;51.094;17.002;2023-04-03T08:35:14;6.22;;;1.80;;
323;SDS011;149;51.094;17.002;2023-04-03T08:37:41;2.20;;;1.50;;
323;SDS011;149;51.094;17.002;2023-04-03T08:40:11;3.45;;;1.35;;
323;SDS011;149;51.094;17.002;2023-04-03T08:45:44;3.85;;;1.40;;
323;SDS011;149;51.094;17.002;2023-04-03T08:48:20;7.13;;;2.55;;
323;SDS011;149;51.094;17.002;2023-04-03T08:50:59;3.70;;;2.25;;
323;SDS011;149;51.094;17.002;2023-04-03T08:53:37;3.70;;;1.60;;
323;SDS011;149;51.094;17.002;2023-04-03T08:56:09;4.35;;;2.00;;
323;SDS011;149;51.094;17.002;2023-04-03T08:58:42;3.08;;;1.67;;
323;SDS011;149;51.094;17.002;2023-04-03T09:01:20;1.90;;;1.67;;
323;SDS011;149;51.094;17.002;2023-04-03T09:03:51;4.05;;;1.90;;
323;SDS011;149;51.094;17.002;2023-04-03T09:06:22;2.92;;;1.10;;
323;SDS011;149;51.094;17.002;2023-04-03T09:14:16;4.72;;;1.75;;
323;SDS011;149;51.094;17.002;2023-04-03T09:16:59;2.85;;;1.67;;
323;SDS011;149;51.094;17.002;2023-04-03T09:22:07;8.63;;;2.00;;
323;SDS011;149;51.094;17.002;2023-04-03T09:24:45;3.08;;;1.27;;
323;SDS011;149;51.094;17.002;2023-04-03T09:27:16;2.92;;;1.73;;
323;SDS011;149;51.094;17.002;2023-04-03T09:29:43;4.50;;;1.92;;
323;SDS011;149;51.094;17.002;2023-04-03T09:34:53;4.20;;;1.70;;
323;SDS011;149;51.094;17.002;2023-04-03T09:37:34;3.33;;;2.25;;
323;SDS011;149;51.094;17.002;2023-04-03T09:40:05;1.33;;;1.20;;
323;SDS011;149;51.094;17.002;2023-04-03T09:42:53;2.55;;;1.45;;
323;SDS011;149;51.094;17.002;2023-04-03T09:45:34;2.83;;;1.63;;
323;SDS011;149;51.094;17.002;2023-04-03T09:58:38;1.48;;;1.38;;
323;SDS011;149;51.094;17.002;2023-04-03T10:06:33;6.05;;;2.10;;
323;SDS011;149;51.094;17.002;2023-04-03T10:09:04;5.13;;;2.30;;
323;SDS011;149;51.094;17.002;2023-04-03T10:11:56;2.35;;;1.95;;
323;SDS011;149;51.094;17.002;2023-04-03T10:14:54;4.05;;;1.85;;
323;SDS011;149;51.094;17.002;2023-04-03T10:23:12;2.65;;;1.52;;
323;SDS011;149;51.094;17.002;2023-04-03T10:26:17;1.90;;;1.73;;
323;SDS011;149;51.094;17.002;2023-04-03T10:28:53;2.88;;;1.50;;
323;SDS011;149;51.094;17.002;2023-04-03T10:31:29;2.00;;;1.90;;
323;SDS011;149;51.094;17.002;2023-04-03T10:34:13;3.13;;;2.13;;
323;SDS011;149;51.094;17.002;2023-04-03T10:39:27;7.13;;;1.85;;
323;SDS011;149;51.094;17.002;2023-04-03T10:56:24;3.72;;;2.58;;
323;SDS011;149;51.094;17.002;2023-04-03T10:59:12;6.15;;;2.00;;
323;SDS011;149;51.094;17.002;2023-04-03T11:01:48;5.03;;;2.13;;
323;SDS011;149;51.094;17.002;2023-04-03T11:04:19;5.43;;;1.98;;
323;SDS011;149;51.094;17.002;2023-04-03T11:07:10;1.63;;;1.52;;
323;SDS011;149;51.094;17.002;2023-04-03T11:09:41;3.15;;;1.98;;
323;SDS011;149;51.094;17.002;2023-04-03T11:12:13;3.53;;;2.15;;
323;SDS011;149;51.094;17.002;2023-04-03T11:15:01;5.78;;;2.03;;
323;SDS011;149;51.094;17.002;2023-04-03T11:17:33;4.82;;;2.17;;
323;SDS011;149;51.094;17.002;2023-04-03T11:22:48;3.25;;;1.80;;
323;SDS011;149;51.094;17.002;2023-04-03T11:25:25;3.15;;;1.67;;
323;SDS011;149;51.094;17.002;2023-04-03T11:27:57;4.20;;;1.83;;
323;SDS011;149;51.094;17.002;2023-04-03T11:30:45;3.20;;;1.92;;
323;SDS011;149;51.094;17.002;2023-04-03T11:33:38;2.42;;;1.35;;
323;SDS011;149;51.094;17.002;2023-04-03T11:36:21;4.30;;;1.80;;
323;SDS011;149;51.094;17.002;2023-04-03T11:39:24;2.63;;;2.05;;
323;SDS011;149;51.094;17.002;2023-04-03T11:41:51;2.13;;;1.73;;
323;SDS011;149;51.094;17.002;2023-04-03T11:44:34;3.20;;;1.92;;
323;SDS011;149;51.094;17.002;2023-04-03T11:47:08;4.25;;;2.00;;
323;SDS011;149;51.094;17.002;2023-04-03T11:55:55;2.50;;;1.95;;
323;SDS011;149;51.094;17.002;2023-04-03T12:16:26;2.15;;;1.80;;
323;SDS011;149;51.094;17.002;2023-04-03T12:22:09;2.40;;;1.73;;
323;SDS011;149;51.094;17.002;2023-04-03T12:24:39;1.70;;;1.60;;
323;SDS011;149;51.094;17.002;2023-04-03T12:27:13;2.67;;;2.13;;
323;SDS011;149;51.094;17.002;2023-04-03T12:32:58;3.20;;;1.77;;
323;SDS011;149;51.094;17.002;2023-04-03T12:35:48;3.65;;;2.05;;
323;SDS011;149;51.094;17.002;2023-04-03T12:38:48;4.78;;;1.85;;
323;SDS011;149;51.094;17.002;2023-04-03T12:41:23;7.38;;;2.33;;
323;SDS011;149;51.094;17.002;2023-04-03T12:46:38;3.67;;;1.67;;
323;SDS011;149;51.094;17.002;2023-04-03T12:51:55;3.28;;;2.00;;
323;SDS011;149;51.094;17.002;2023-04-03T12:54:27;2.42;;;1.92;;
323;SDS011;149;51.094;17.002;2023-04-03T12:59:56;2.25;;;1.40;;
323;SDS011;149;51.094;17.002;2023-04-03T13:02:30;2.63;;;1.50;;
323;SDS011;149;51.094;17.002;2023-04-03T13:05:05;3.08;;;1.60;;
323;SDS011;149;51.094;17.002;2023-04-03T13:07:35;4.20;;;2.30;;
323;SDS011;149;51.094;17.002;2023-04-03T13:12:56;3.55;;;2.42;;
323;SDS011;149;51.094;17.002;2023-04-03T13:15:27;3.25;;;2.22;;
323;SDS011;149;51.094;17.002;2023-04-03T13:18:20;1.77;;;1.60;;
323;SDS011;149;51.094;17.002;2023-04-03T13:21:02;3.13;;;2.42;;
323;SDS011;149;51.094;17.002;2023-04-03T13:23:38;2.35;;;2.05;;
323;SDS011;149;51.094;17.002;2023-04-03T13:26:09;2.75;;;1.90;;
323;SDS011;149;51.094;17.002;2023-04-03T13:28:37;2.03;;;1.83;;
323;SDS011;149;51.094;17.002;2023-04-03T13:33:54;2.28;;;1.50;;
323;SDS011;149;51.094;17.002;2023-04-03T13:36:34;5.15;;;2.38;;
323;SDS011;149;51.094;17.002;2023-04-03T13:41:48;4.75;;;1.98;;
323;SDS011;149;51.094;17.002;2023-04-03T13:44:26;4.63;;;1.83;;
323;SDS011;149;51.094;17.002;2023-04-03T13:47:00;3.80;;;2.22;;
323;SDS011;149;51.094;17.002;2023-04-03T13:49:37;4.05;;;1.90;;
323;SDS011;149;51.094;17.002;2023-04-03T13:54:45;2.53;;;2.05;;
323;SDS011;149;51.094;17.002;2023-04-03T13:57:14;2.67;;;1.92;;
323;SDS011;149;51.094;17.002;2023-04-03T13:59:45;3.85;;;1.80;;
323;SDS011;149;51.094;17.002;2023-04-03T14:07:09;3.50;;;2.40;;
323;SDS011;149;51.094;17.002;2023-04-03T14:09:37;3.33;;;1.67;;
323;SDS011;149;51.094;17.002;2023-04-03T14:12:05;2.90;;;1.52;;
323;SDS011;149;51.094;17.002;2023-04-03T14:14:58;4.53;;;1.83;;
323;SDS011;149;51.094;17.002;2023-04-03T14:17:29;1.83;;;1.73;;
323;SDS011;149;51.094;17.002;2023-04-03T14:19:56;3.22;;;1.45;;
323;SDS011;149;51.094;17.002;2023-04-03T14:22:25;3.03;;;2.25;;
323;SDS011;149;51.094;17.002;2023-04-03T14:24:55;2.13;;;1.92;;
323;SDS011;149;51.094;17.002;2023-04-03T14:29:59;2.58;;;2.38;;
323;SDS011;149;51.094;17.002;2023-04-03T14:32:27;1.98;;;1.60;;
323;SDS011;149;51.094;17.002;2023-04-03T14:34:54;2.15;;;1.95;;
323;SDS011;149;51.094;17.002;2023-04-03T14:37:24;2.20;;;1.75;;
323;SDS011;149;51.094;17.002;2023-04-03T14:39:53;4.65;;;2.20;;
323;SDS011;149;51.094;17.002;2023-04-03T14:42:32;3.20;;;1.88;;
323;SDS011;149;51.094;17.002;2023-04-03T14:45:01;3.15;;;2.13;;
323;SDS011;149;51.094;17.002;2023-04-03T14:47:31;3.22;;;1.92;;
323;SDS011;149;51.094;17.002;2023-04-03T14:50:00;3.92;;;1.60;;
323;SDS011;149;51.094;17.002;2023-04-03T14:52:32;2.00;;;1.80;;
323;SDS011;149;51.094;17.002;2023-04-03T14:55:01;3.17;;;1.80;;
323;SDS011;149;51.094;17.002;2023-04-03T14:57:30;3.25;;;1.70;;
323;SDS011;149;51.094;17.002;2023-04-03T14:59:58;3.63;;;2.58;;
323;SDS011;149;51.094;17.002;2023-04-03T15:02:43;2.55;;;1.70;;
323;SDS011;149;51.094;17.002;2023-04-03T15:05:12;2.03;;;1.92;;
323;SDS011;149;51.094;17.002;2023-04-03T15:07:40;4.70;;;1.77;;
323;SDS011;149;51.094;17.002;2023-04-03T15:10:27;3.63;;;1.95;;
323;SDS011;149;51.094;17.002;2023-04-03T15:12:56;4.18;;;2.78;;
323;SDS011;149;51.094;17.002;2023-04-03T15:15:23;4.93;;;2.13;;
323;SDS011;149;51.094;17.002;2023-04-03T15:17:54;1.85;;;1.67;;
323;SDS011;149;51.094;17.002;2023-04-03T15:20:25;2.33;;;1.80;;
323;SDS011;149;51.094;17.002;2023-04-03T15:22:54;2.30;;;1.35;;
323;SDS011;149;51.094;17.002;2023-04-03T15:25:23;1.70;;;1.30;;
323;SDS011;149;51.094;17.002;2023-04-03T15:27:52;2.30;;;1.88;;
323;SDS011;149;51.094;17.002;2023-04-03T15:30:23;2.30;;;1.95;;
323;SDS011;149;51.094;17.002;2023-04-03T15:32:50;2.47;;;1.50;;
323;SDS011;149;51.094;17.002;2023-04-03T15:35:17;5.20;;;2.30;;
323;SDS011;149;51.094;17.002;2023-04-03T15:37:44;1.73;;;1.63;;
323;SDS011;149;51.094;17.002;2023-04-03T15:40:12;2.30;;;1.98;;
323;SDS011;149;51.094;17.002;2023-04-03T15:42:40;4.70;;;1.77;;
323;SDS011;149;51.094;17.002;2023-04-03T15:45:07;5.22;;;2.38;;
323;SDS011;149;51.094;17.002;2023-04-03T15:47:36;3.58;;;2.47;;
323;SDS011;149;51.094;17.002;2023-04-03T15:50:03;2.83;;;2.53;;
323;SDS011;149;51.094;17.002;2023-04-03T15:52:33;2.33;;;2.13;;
323;SDS011;149;51.094;17.002;2023-04-03T15:55:00;4.78;;;2.70;;
323;SDS011;149;51.094;17.002;2023-04-03T15:57:27;3.55;;;2.47;;
323;SDS011;149;51.094;17.002;2023-04-03T15:59:54;5.90;;;3.25;;
323;SDS011;149;51.094;17.002;2023-04-03T16:02:22;3.58;;;1.98;;
323;SDS011;149;51.094;17.002;2023-04-03T16:04:49;4.00;;;2.78;;
323;SDS011;149;51.094;17.002;2023-04-03T16:07:16;5.85;;;2.30;;
323;SDS011;149;51.094;17.002;2023-04-03T16:09:43;2.85;;;2.13;;
323;SDS011;149;51.094;17.002;2023-04-03T16:12:09;3.40;;;2.33;;
323;SDS011;149;51.094;17.002;2023-04-03T16:14:36;14.13;;;3.03;;
323;SDS011;149;51.094;17.002;2023-04-03T16:17:03;4.95;;;2.53;;
323;SDS011;149;51.094;17.002;2023-04-03T16:19:30;3.05;;;2.67;;
323;SDS011;149;51.094;17.002;2023-04-03T16:21:58;4.45;;;2.30;;
323;SDS011;149;51.094;17.002;2023-04-03T16:24:25;8.52;;;2.55;;
323;SDS011;149;51.094;17.002;2023-04-03T16:26:51;4.10;;;3.03;;
323;SDS011;149;51.094;17.002;2023-04-03T16:29:19;1.92;;;1.83;;
323;SDS011;149;51.094;17.002;2023-04-03T16:31:46;6.38;;;2.50;;
323;SDS011;149;51.094;17.002;2023-04-03T16:34:13;6.82;;;2.92;;
323;SDS011;149;51.094;17.002;2023-04-03T16:36:41;3.92;;;2.70;;
323;SDS011;149;51.094;17.002;2023-04-03T16:39:08;5.03;;;2.80;;
323;SDS011;149;51.094;17.002;2023-04-03T16:41:38;4.60;;;2.92;;
323;SDS011;149;51.094;17.002;2023-04-03T16:44:05;3.80;;;2.08;;
323;SDS011;149;51.094;17.002;2023-04-03T16:46:33;4.07;;;3.67;;
323;SDS011;149;51.094;17.002;2023-04-03T16:49:00;6.68;;;5.30;;
323;SDS011;149;51.094;17.002;2023-04-03T16:51:30;7.55;;;3.03;;
323;SDS011;149;51.094;17.002;2023-04-03T16:53:58;4.68;;;2.60;;
323;SDS011;149;51.094;17.002;2023-04-03T16:56:26;5.65;;;3.53;;
323;SDS011;149;51.094;17.002;2023-04-03T16:58:53;2.97;;;2.45;;
323;SDS011;149;51.094;17.002;2023-04-03T17:01:21;3.95;;;2.55;;
323;SDS011;149;51.094;17.002;2023-04-03T17:03:49;3.30;;;3.00;;
323;SDS011;149;51.094;17.002;2023-04-03T17:06:17;4.20;;;2.92;;
323;SDS011;149;51.094;17.002;2023-04-03T17:08:46;5.45;;;2.75;;
323;SDS011;149;51.094;17.002;2023-04-03T17:11:15;2.40;;;2.20;;
323;SDS011;149;51.094;17.002;2023-04-03T17:13:42;3.38;;;2.92;;
323;SDS011;149;51.094;17.002;2023-04-03T17:16:11;5.05;;;2.80;;
323;SDS011;149;51.094;17.002;2023-04-03T17:18:41;4.53;;;2.25;;
323;SDS011;149;51.094;17.002;2023-04-03T17:21:08;8.43;;;3.05;;
323;SDS011;149;51.094;17.002;2023-04-03T17:23:35;3.00;;;2.58;;
323;SDS011;149;51.094;17.002;2023-04-03T17:26:04;5.82;;;3.05;;
323;SDS011;149;51.094;17.002;2023-04-03T17:28:30;5.32;;;2.65;;
323;SDS011;149;51.094;17.002;2023-04-03T17:30:59;2.60;;;2.40;;
323;SDS011;149;51.094;17.002;2023-04-03T17:33:27;6.55;;;3.00;;
323;SDS011;149;51.094;17.002;2023-04-03T17:35:57;4.00;;;2.55;;
323;SDS011;149;51.094;17.002;2023-04-03T17:38:24;2.67;;;2.47;;
323;SDS011;149;51.094;17.002;2023-04-03T17:40:55;6.00;;;3.13;;
323;SDS011;149;51.094;17.002;2023-04-03T17:43:23;7.30;;;2.97;;
323;SDS011;149;51.094;17.002;2023-04-03T17:45:51;4.63;;;2.67;;
323;SDS011;149;51.094;17.002;2023-04-03T17:48:23;3.22;;;3.03;;